Nord Neptune — OZDR2 — position and weather

sailwx.info

Track history (hours):
 
Tides and Currents Weather Stations Pressure Air Temp Water Temp Dewpoint Dewpoint Depression Visibility Wind Speed Wind Dir Waves Ship Positions

Nord Neptune

Last reported at 2018-Apr-17 02:10 UTC. Time now 2018-Apr-22 18:14 UTC.
Position N 01°13' E 103°28'.

Length 225 m; draft 13.1 m.

Type: Cargo ship. MMSI: 219194000.

Date/timePositionNaut miles runAvg speedWind from/ knotsBaromVisibWave heightAir tempDewpointWater temp
2018-Apr-17 02:10N 01°13' E 103°28'212.4
2018-Apr-17 01:59N 01°13' E 103°30'713.0
2018-Apr-17 01:28N 01°11' E 103°37'613.2
2018-Apr-17 01:00N 01°09' E 103°43'611.4
2018-Apr-17 00:30N 01°11' E 103°48'510.1
2018-Apr-17 00:00N 01°13' E 103°53'4 7.6
2018-Apr-16 23:30N 01°14' E 103°56'2 4.8
2018-Apr-16 23:00N 01°17' E 103°57'2 0.5
2018-Apr-16 19:58N 01°17' E 103°59'0 0.1
2018-Apr-16 19:30N 01°17' E 103°59'0 0.0
2018-Apr-16 18:46N 01°17' E 103°59'0 0.0
2018-Apr-16 18:30N 01°17' E 103°59'0 0.0
2018-Apr-16 18:00N 01°17' E 103°59'0 0.0
2018-Apr-16 10:48N 01°17' E 103°58'0 0.1
2018-Apr-16 09:29N 01°17' E 103°59'1 1.3
2018-Apr-16 08:50N 01°16' E 103°59'  
2018-Apr-11 01:03N 22°17' E 119°53'312.4
2018-Apr-11 00:48N 22°20' E 119°53'412.2
2018-Apr-11 00:30N 22°23' E 119°53'612.2
2018-Apr-11 00:00N 22°29' E 119°53'711.7
2018-Apr-10 23:25N 22°36' E 119°52'511.4
2018-Apr-10 22:58N 22°41' E 119°52'611.3
2018-Apr-10 22:28N 22°47' E 119°52'511.0
2018-Apr-10 22:00N 22°52' E 119°52'610.5
2018-Apr-10 21:23N 22°59' E 119°52'510.1
2018-Apr-10 20:54N 23°03' E 119°52'610.1
2018-Apr-10 20:22N 23°09' E 119°51'24 9.5
2018-Apr-10 17:48N 23°33' E 119°53'310.0
2018-Apr-10 17:30N 23°36' E 119°53'610.1
2018-Apr-10 16:56N 23°42' E 119°53'10810.7
2018-Apr-10 06:50N 25°20' E 120°42'410.7
2018-Apr-10 06:31N 25°23' E 120°45'1210.0
2018-Apr-10 05:16N 25°32' E 120°54'2 9.0
2018-Apr-10 05:00N 25°34' E 120°56'  
Track history (hours):
 
Tides and Currents Weather Stations Pressure Air Temp Water Temp Dewpoint Dewpoint Depression Visibility Wind Speed Wind Dir Waves Ship Positions

Nord Neptune

Last reported at 2018-Apr-17 02:10 UTC. Time now 2018-Apr-22 18:14 UTC.
Position N 01°13' E 103°28'.

Length 225 m; draft 13.1 m.

Type: Cargo ship. MMSI: 219194000.

Date/timePositionNaut miles runAvg speedWind from/ knotsBaromVisibWave heightAir tempDewpointWater temp
2018-Apr-17 02:10N 01°13' E 103°28'212.4
2018-Apr-17 01:59N 01°13' E 103°30'713.0
2018-Apr-17 01:28N 01°11' E 103°37'613.2
2018-Apr-17 01:00N 01°09' E 103°43'611.4
2018-Apr-17 00:30N 01°11' E 103°48'510.1
2018-Apr-17 00:00N 01°13' E 103°53'4 7.6
2018-Apr-16 23:30N 01°14' E 103°56'2 4.8
2018-Apr-16 23:00N 01°17' E 103°57'2 0.5
2018-Apr-16 19:58N 01°17' E 103°59'0 0.1
2018-Apr-16 19:30N 01°17' E 103°59'0 0.0
2018-Apr-16 18:46N 01°17' E 103°59'0 0.0
2018-Apr-16 18:30N 01°17' E 103°59'0 0.0
2018-Apr-16 18:00N 01°17' E 103°59'0 0.0
2018-Apr-16 10:48N 01°17' E 103°58'0 0.1
2018-Apr-16 09:29N 01°17' E 103°59'1 1.3
2018-Apr-16 08:50N 01°16' E 103°59'  
2018-Apr-11 01:03N 22°17' E 119°53'312.4
2018-Apr-11 00:48N 22°20' E 119°53'412.2
2018-Apr-11 00:30N 22°23' E 119°53'612.2
2018-Apr-11 00:00N 22°29' E 119°53'711.7
2018-Apr-10 23:25N 22°36' E 119°52'511.4
2018-Apr-10 22:58N 22°41' E 119°52'611.3
2018-Apr-10 22:28N 22°47' E 119°52'511.0
2018-Apr-10 22:00N 22°52' E 119°52'610.5
2018-Apr-10 21:23N 22°59' E 119°52'510.1
2018-Apr-10 20:54N 23°03' E 119°52'610.1
2018-Apr-10 20:22N 23°09' E 119°51'24 9.5
2018-Apr-10 17:48N 23°33' E 119°53'310.0
2018-Apr-10 17:30N 23°36' E 119°53'610.1
2018-Apr-10 16:56N 23°42' E 119°53'10810.7
2018-Apr-10 06:50N 25°20' E 120°42'410.7
2018-Apr-10 06:31N 25°23' E 120°45'1210.0
2018-Apr-10 05:16N 25°32' E 120°54'2 9.0
2018-Apr-10 05:00N 25°34' E 120°56'  

Dump ship's entire track history